Airfield :
LOGIN :

Register | Disclaimer

   EN    FR    IT 

 










Legend :    VFR   Marginal VFR   IFR   Intensive IFR   Very Intensive IFR
Visi :
Ceiling :
>= 8 km
>= 3000ft
5 to 8 km
1000 to 3000 ft
1500m to 5 km
500 to 1000 ft
800 to 1500m
200 to 500 ft
< 800m
< 200 ft
Symbols :   Thunderstorms  Fog  Heavy snow  Heavy precipitations  Wind > 20 kt
SIGMETs :     Misc.  Thunderstorms  Icing  Turbulence  Mountain Waves  Volcanic Ashes






- Airport Elevation : 313 ft
- IATA code : LEH


LFOH - Le Havre Octeville

CURRENT METAR :
  • 010530Z AUTO 36015KT 340V060 9999 BKN026 08/03 Q1023

EXPIRED METARs :
  • 010500Z AUTO 36015KT 9999 BKN027 08/03 Q1023
  • 010430Z AUTO 36016KT 340V040 9999 BKN027 08/03 Q1023
  • 010400Z AUTO 36015KT 340V040 9999 BKN025 08/04 Q1023
  • 010330Z AUTO 36015KT 340V040 9999 SCT024 08/03 Q1022
  • 010300Z AUTO 36017KT 9999 FEW024 08/04 Q1022

TAF AMD TAF LFOH
Valid from the 30 at 18:00 until the 01 at 12:00 UTC


301840Z 3018/0112 25010KT 8000 OVC006
TEMPO 3018/3022 25020G30KT 3000 RA BR OVC003
BECMG 3022/3024 34020G30KT SCT030
ATIS : +33 2 35 54 64 93



MET'MAP, your aeronautical weather chart ! - Copyright ORBIFLY December 2007 - Disclaimer

ORBIFLY MET'MAP TEAM :

Programming & Development : Alexandra Zaïnal
Concept & original design : Baudouin d'Aumeries
Assistance for programming : Marc-Olivier Méhu
Technical & hardware support : Manuel Goepfert

Contact : metmap@orbifly.com




SOURCES & CREDITS :

   NOAA